Flight Track Log - Related Links

Times and Time Zones

All times are in EDT time to prevent confusion due to time zone crossing. See the CTL18 flight status page for this flight to view local times or setup timezone preferences in your user account.


Time Position Orientation Groundspeed Altitude Reporting Facility
EDT Latitude Longitude Course Direction KTS MPH feet Rate Location/Type
Mon 09:08:50 PM 42.1636 -83.6172 214° Southwest 152 175 2,400  Level Cleveland Center
Mon 09:09:51 PM 42.1336 -83.6547 223° Southwest 149 171 3,000 295 Climbing Cleveland Center
Mon 09:10:52 PM 42.0900 -83.6472 173° South 163 188 3,000  Level Cleveland Center
Mon 09:11:53 PM 42.0442 -83.6394 173° South 166 191 3,000  Level Cleveland Center
Mon 09:12:48 PM 42.0050 -83.6292 169° South 158 182 3,000  Level Cleveland Center
Mon 09:13:49 PM 41.9772 -83.5747 124° Southeast 168 193 3,000  Level Cleveland Center
Mon 09:14:50 PM 41.9472 -83.5231 128° Southeast 170 196 3,000  Level Cleveland Center
Mon 09:16:00 PM 41.9336 -83.4623 107° East  Level Estimated
Mon 09:17:53 PM 41.8806 -83.3583 107° East 180 207 3,000  Level Cleveland Center
Mon 09:18:54 PM 41.8656 -83.2906 107° East 173 199 3,100 246 Climbing Cleveland Center
Mon 09:19:55 PM 41.8544 -83.2289 104° East 168 193 3,500 393 Climbing Cleveland Center
Mon 09:20:56 PM 41.8411 -83.1697 107° East 166 191 3,900 393 Climbing Cleveland Center
Mon 09:21:57 PM 41.8300 -83.1136 105° East 168 193 4,300 397 Climbing Cleveland Center
Mon 09:22:57 PM 41.8167 -83.0489 105° East 165 190 4,700 397 Climbing Cleveland Center
Mon 09:23:00 PM 41.8511 -83.0981 107° East  Level Estimated
Mon 09:23:58 PM 41.8033 -82.9872 106° East 170 196 5,100  Level Cleveland Center
Mon 09:24:30 PM 41.7956 -82.9617 112° Southeast 170 196 5,000 -65 Descending Cleveland Center
Mon 09:25:30 PM 41.7803 -82.8944 107° East 180 207 5,000  Level Cleveland Center
Mon 09:26:31 PM 41.7711 -82.8300 101° East 174 200 5,000  Level Cleveland Center
Mon 09:27:32 PM 41.7619 -82.7628 100° East 175 201 5,000  Level Cleveland Center
Mon 09:28:32 PM 41.7547 -82.7014 99° East 173 199 5,000  Level Cleveland Center
Mon 09:29:33 PM 41.7456 -82.6369 101° East 175 201 5,000 33 Level Cleveland Center
Mon 09:31:34 PM 41.7269 -82.5111 101° East 170 196 5,100  Climbing Cleveland Center
Mon 09:32:29 PM 41.7175 -82.4553 103° East 172 198 5,000 -50 Descending Cleveland Center
Mon 09:33:35 PM 41.7083 -82.3800 99° East 174 200 5,000 -90 Level Cleveland Center
Mon 09:34:42 PM 41.6967 -82.3100 103° East 180 207 4,800 -375 Descending Cleveland Center
Mon 09:35:43 PM 41.6853 -82.2431 103° East 193 222 4,200 -520 Descending Cleveland Center
Mon 09:36:49 PM 41.6678 -82.1619 106° East 192 221 3,700 -451 Descending Cleveland Center
Mon 09:37:56 PM 41.6542 -82.0894 104° East 187 215 3,200 -493 Descending Cleveland Center
Mon 09:39:03 PM 41.6383 -82.0139 106° East 190 219 2,600 -496 Descending Cleveland Center
Mon 09:39:57 PM 41.6286 -81.9528 102° East 184 212 2,200 -313 Descending Cleveland Center
Mon 09:40:58 PM 41.6106 -81.8939 112° Southeast 173 199 2,000 -94 Descending Cleveland Center
Mon 09:42:04 PM 41.5778 -81.8350 127° Southeast 165 190 2,000 -99 Level Cleveland Center
Mon 09:42:59 PM 41.5556 -81.7875 122° Southeast 169 194 1,800 -220 Descending Cleveland Center
Mon 09:43:53 PM 41.5308 -81.7508 132° Southeast 157 181 1,600 -446 Descending Cleveland Center
Mon 09:45:00 PM 41.5083 -81.7033 122° Southeast 111 128 900 -627 Descending Cleveland Center
Mon 09:46:00 PM 41.5175 -81.6833 108° East  Level Estimated

Login

Don't have an account? Register now (free) for customized features, flight alerts, and more!